createdAt,value
2017-10-11T00:00:46.710Z,14.40
2017-10-11T00:03:15.663Z,14.20
2017-10-11T00:05:45.368Z,14.20
2017-10-11T00:08:15.181Z,14.30
2017-10-11T00:10:44.569Z,14.30
2017-10-11T00:13:13.556Z,14.30
2017-10-11T00:15:42.500Z,14.30
2017-10-11T00:18:11.469Z,14.30
2017-10-11T00:20:41.190Z,14.30
2017-10-11T00:23:10.181Z,14.20
2017-10-11T00:25:39.515Z,14.30
2017-10-11T00:28:08.492Z,14.30
2017-10-11T00:30:37.472Z,14.30
2017-10-11T00:33:06.464Z,14.20
2017-10-11T00:35:35.813Z,14.30
2017-10-11T00:38:04.800Z,14.20
2017-10-11T00:40:34.531Z,14.20
2017-10-11T00:43:03.905Z,14.20
2017-10-11T00:45:33.611Z,14.30
2017-10-11T00:48:02.623Z,14.20
2017-10-11T00:50:31.601Z,14.30
2017-10-11T00:53:00.548Z,14.30
2017-10-11T00:55:29.518Z,14.30
2017-10-11T00:57:59.249Z,14.30
2017-10-11T01:00:28.225Z,14.30
2017-10-11T01:02:57.565Z,14.20
2017-10-11T01:05:26.544Z,14.20
2017-10-11T01:07:55.485Z,14.40
2017-10-11T01:10:24.847Z,14.20
2017-10-11T01:12:53.815Z,14.30
2017-10-11T01:15:23.569Z,14.30
2017-10-11T01:17:52.555Z,14.30
2017-10-11T01:20:21.549Z,14.30
2017-10-11T01:22:50.569Z,14.40
2017-10-11T01:25:19.945Z,14.30
2017-10-11T01:27:49.060Z,14.30
2017-10-11T01:30:20.041Z,14.30
2017-10-11T01:32:48.994Z,14.20
2017-10-11T01:35:18.858Z,14.10
2017-10-11T01:37:47.832Z,14.10
2017-10-11T01:40:17.229Z,14.20
2017-10-11T01:42:46.348Z,14.20
2017-10-11T01:45:15.382Z,14.20
2017-10-11T01:47:44.730Z,14.20
2017-10-11T01:50:13.704Z,14.30
2017-10-11T01:52:42.660Z,14.20
2017-10-11T01:55:18.385Z,14.30
2017-10-11T01:57:47.336Z,14.30
2017-10-11T02:00:16.326Z,14.30
2017-10-11T02:02:45.280Z,14.30
2017-10-11T02:05:14.329Z,14.30
2017-10-11T02:07:43.768Z,14.40
2017-10-11T02:10:13.140Z,14.40
2017-10-11T02:12:42.500Z,14.50
2017-10-11T02:15:11.479Z,14.50
2017-10-11T02:17:41.203Z,14.50
2017-10-11T02:20:10.263Z,14.40
2017-10-11T02:22:39.637Z,14.40
2017-10-11T02:25:08.620Z,14.50
2017-10-11T02:27:38.005Z,14.40
2017-10-11T02:30:06.973Z,14.30
2017-10-11T02:32:36.734Z,14.40
2017-10-11T02:35:05.724Z,14.40
2017-10-11T02:37:34.711Z,14.40
2017-10-11T02:40:03.707Z,14.50
2017-10-11T02:42:32.700Z,14.50
2017-10-11T02:45:01.647Z,14.40
2017-10-11T02:47:31.376Z,14.30
2017-10-11T02:50:00.327Z,14.30
2017-10-11T02:52:29.708Z,14.20
2017-10-11T02:54:58.737Z,14.20
2017-10-11T02:57:28.448Z,14.20
2017-10-11T02:59:58.191Z,14.20
2017-10-11T03:02:27.581Z,14.20
2017-10-11T03:04:56.949Z,14.20
2017-10-11T03:07:26.686Z,14.20
2017-10-11T03:09:55.649Z,14.20
2017-10-11T03:12:24.992Z,14.30
2017-10-11T03:14:54.083Z,14.30
2017-10-11T03:17:24.197Z,14.30
2017-10-11T03:19:53.182Z,14.40
2017-10-11T03:22:22.544Z,14.30
2017-10-11T03:24:51.493Z,14.30
2017-10-11T03:27:20.846Z,14.40
2017-10-11T03:29:50.604Z,14.40
2017-10-11T03:32:19.549Z,14.40
2017-10-11T03:34:49.359Z,14.40
2017-10-11T03:37:18.744Z,14.30
2017-10-11T03:39:47.686Z,14.30
2017-10-11T03:42:17.428Z,14.30
2017-10-11T03:44:46.788Z,14.30
2017-10-11T03:47:15.760Z,14.30
2017-10-11T03:49:45.571Z,14.30
2017-10-11T03:52:15.310Z,14.30
2017-10-11T03:54:44.263Z,14.20
2017-10-11T03:57:14.003Z,14.30
2017-10-11T03:59:43.417Z,14.30
2017-10-11T04:02:12.391Z,14.30
2017-10-11T04:04:41.361Z,14.20
2017-10-11T04:07:11.100Z,14.30
2017-10-11T04:09:40.450Z,14.20
2017-10-11T04:12:09.841Z,14.30
2017-10-11T04:14:39.173Z,14.30
2017-10-11T04:17:08.544Z,14.30
2017-10-11T04:19:37.892Z,14.40
2017-10-11T04:22:06.864Z,14.40
2017-10-11T04:24:36.579Z,14.30
2017-10-11T04:27:06.393Z,14.20
2017-10-11T04:29:36.592Z,14.20
2017-10-11T04:32:05.998Z,14.30
2017-10-11T04:34:34.941Z,14.80
2017-10-11T04:37:04.402Z,14.10
2017-10-11T04:39:34.114Z,14.10
2017-10-11T04:42:03.928Z,14.20
2017-10-11T04:44:33.644Z,14.30
2017-10-11T04:47:02.634Z,14.20
2017-10-11T04:49:31.620Z,14.30
2017-10-11T04:52:01.338Z,14.10
2017-10-11T04:54:30.320Z,14.10
2017-10-11T04:57:00.032Z,14.10
2017-10-11T04:59:29.104Z,14.10
2017-10-11T05:01:58.834Z,14.00
2017-10-11T05:04:28.610Z,14.00
2017-10-11T05:06:57.564Z,14.00
2017-10-11T05:09:26.561Z,14.10
2017-10-11T05:11:55.514Z,14.00
2017-10-11T05:14:25.255Z,14.10
2017-10-11T05:16:55.024Z,14.10
2017-10-11T05:19:24.838Z,14.10
2017-10-11T05:21:53.828Z,14.00
2017-10-11T05:24:23.641Z,14.00
2017-10-11T05:26:52.725Z,14.00
2017-10-11T05:29:21.708Z,14.00
2017-10-11T05:31:50.670Z,14.00
2017-10-11T05:34:19.701Z,13.90
2017-10-11T05:36:49.441Z,13.90
2017-10-11T05:39:18.438Z,13.90
2017-10-11T05:41:47.788Z,13.80
2017-10-11T05:44:18.294Z,13.90
2017-10-11T05:46:48.086Z,13.90
2017-10-11T05:49:17.070Z,13.90
2017-10-11T05:51:46.848Z,13.90
2017-10-11T05:54:16.571Z,13.90
2017-10-11T05:56:45.607Z,13.80
2017-10-11T05:59:14.583Z,13.90
2017-10-11T06:01:43.613Z,13.90
2017-10-11T06:04:12.641Z,13.90
2017-10-11T06:06:42.409Z,14.00
2017-10-11T06:09:11.436Z,14.00
2017-10-11T06:11:41.201Z,13.90
2017-10-11T06:14:10.563Z,13.80
2017-10-11T06:16:39.724Z,13.80
2017-10-11T06:19:08.788Z,13.80
2017-10-11T06:21:37.752Z,13.90
2017-10-11T06:24:06.788Z,14.00
2017-10-11T06:26:36.530Z,14.00
2017-10-11T06:29:06.355Z,14.00
2017-10-11T06:31:36.075Z,14.00
2017-10-11T06:34:05.458Z,13.90
2017-10-11T06:36:35.174Z,13.90
2017-10-11T06:39:04.224Z,13.90
2017-10-11T06:41:33.227Z,14.00
2017-10-11T06:44:02.649Z,14.00
2017-10-11T06:46:32.005Z,13.90
2017-10-11T06:49:01.396Z,14.10
2017-10-11T06:51:30.346Z,14.10
2017-10-11T06:54:00.105Z,14.10
2017-10-11T06:56:29.084Z,14.10
2017-10-11T06:58:58.061Z,14.10
2017-10-11T07:01:27.821Z,14.20
2017-10-11T07:03:57.565Z,14.20
2017-10-11T07:06:26.525Z,14.30
2017-10-11T07:08:55.589Z,14.20
2017-10-11T07:11:24.540Z,14.30
2017-10-11T07:13:54.354Z,14.20
2017-10-11T07:16:23.718Z,14.20
2017-10-11T07:18:52.740Z,14.10
2017-10-11T07:21:21.725Z,14.10
2017-10-11T07:23:51.529Z,14.10
2017-10-11T07:26:20.492Z,14.20
2017-10-11T07:28:51.416Z,14.10
2017-10-11T07:31:20.489Z,14.20
2017-10-11T07:33:49.489Z,14.20
2017-10-11T07:36:18.465Z,14.30
2017-10-11T07:38:48.153Z,14.20
2017-10-11T07:41:17.537Z,14.30
2017-10-11T07:43:47.285Z,14.40
2017-10-11T07:46:18.408Z,14.40
2017-10-11T07:48:48.132Z,14.40
2017-10-11T07:51:18.431Z,14.30
2017-10-11T07:53:47.661Z,14.30
2017-10-11T07:56:17.069Z,14.20
2017-10-11T07:58:46.048Z,14.30
2017-10-11T08:01:15.887Z,14.20
2017-10-11T08:03:44.907Z,14.20
2017-10-11T08:06:13.961Z,14.20
2017-10-11T08:08:43.102Z,14.20
2017-10-11T08:11:13.849Z,14.10
2017-10-11T08:13:46.165Z,14.10
2017-10-11T08:16:15.953Z,14.20
2017-10-11T08:18:44.954Z,14.20
2017-10-11T08:21:14.877Z,14.40
2017-10-11T08:23:43.922Z,14.40
2017-10-11T08:26:13.324Z,14.30
2017-10-11T08:28:44.184Z,14.40
2017-10-11T08:31:13.553Z,14.40
2017-10-11T08:33:42.607Z,14.30
2017-10-11T08:36:11.587Z,14.40
2017-10-11T08:38:40.599Z,14.40
2017-10-11T08:41:09.575Z,14.40
2017-10-11T08:43:39.443Z,14.40
2017-10-11T08:46:08.468Z,14.30
2017-10-11T08:48:38.206Z,14.20
2017-10-11T08:51:07.193Z,14.20
2017-10-11T08:53:36.139Z,14.20
2017-10-11T08:56:05.103Z,14.10
2017-10-11T08:58:34.066Z,14.30
2017-10-11T09:01:03.480Z,14.30
2017-10-11T09:03:32.851Z,14.30
2017-10-11T09:06:01.805Z,14.30
2017-10-11T09:08:30.798Z,14.30
2017-10-11T09:11:00.517Z,14.40
2017-10-11T09:13:30.312Z,14.30
2017-10-11T09:16:00.061Z,14.30
2017-10-11T09:18:29.045Z,14.30
2017-10-11T09:20:58.401Z,14.40
2017-10-11T09:23:27.386Z,14.30
2017-10-11T09:25:56.395Z,14.40
2017-10-11T09:28:25.464Z,14.40
2017-10-11T09:30:54.441Z,14.40
2017-10-11T09:33:23.769Z,14.40
2017-10-11T09:35:52.761Z,14.40
2017-10-11T09:38:21.790Z,14.50
2017-10-11T09:40:51.553Z,14.50
2017-10-11T09:43:20.533Z,14.50
2017-10-11T09:45:49.508Z,14.60
2017-10-11T09:48:18.490Z,14.70
2017-10-11T09:50:48.223Z,14.60
2017-10-11T09:53:17.201Z,14.50
2017-10-11T09:55:46.595Z,14.60
2017-10-11T09:58:15.664Z,14.60
2017-10-11T10:00:45.409Z,14.50
2017-10-11T10:03:14.367Z,14.60
2017-10-11T10:05:43.776Z,14.70
2017-10-11T10:08:13.489Z,14.80
2017-10-11T10:10:42.561Z,14.70
2017-10-11T10:13:12.292Z,14.70
2017-10-11T10:15:41.777Z,14.80
2017-10-11T10:18:11.525Z,14.80
2017-10-11T10:20:40.509Z,14.90
2017-10-11T10:23:09.899Z,14.90
2017-10-11T10:25:38.857Z,14.80
2017-10-11T10:28:07.853Z,14.80
2017-10-11T10:30:36.804Z,14.80
2017-10-11T10:33:05.792Z,14.80
2017-10-11T10:35:34.765Z,14.80
2017-10-11T10:38:03.754Z,14.90
2017-10-11T10:40:32.825Z,14.90
2017-10-11T10:43:02.657Z,15.20
2017-10-11T10:45:31.734Z,15.20
2017-10-11T10:48:01.512Z,15.40
2017-10-11T10:50:31.247Z,15.20
2017-10-11T10:53:00.981Z,15.20
2017-10-11T10:55:29.961Z,15.20
2017-10-11T10:57:59.313Z,15.20
2017-10-11T11:00:28.301Z,15.20
2017-10-11T11:02:58.084Z,15.10
2017-10-11T11:05:27.077Z,15.10
2017-10-11T11:07:56.037Z,15.00
2017-10-11T11:10:25.423Z,14.90
2017-10-11T11:12:54.427Z,15.00
2017-10-11T11:15:24.182Z,15.10
2017-10-11T11:17:53.201Z,15.10
2017-10-11T11:20:22.172Z,15.10
2017-10-11T11:22:51.564Z,15.20
2017-10-11T11:25:20.517Z,15.30
2017-10-11T11:27:50.303Z,15.20
2017-10-11T11:30:19.277Z,15.20
2017-10-11T11:32:48.729Z,15.10
2017-10-11T11:35:18.472Z,15.00
2017-10-11T11:37:47.443Z,15.10
2017-10-11T11:40:17.185Z,15.10
2017-10-11T11:42:46.193Z,15.10
2017-10-11T11:45:15.581Z,15.10
2017-10-11T11:47:45.052Z,15.20
2017-10-11T11:50:14.122Z,15.20
2017-10-11T11:52:43.938Z,15.20
2017-10-11T11:55:13.683Z,15.30
2017-10-11T11:57:43.423Z,15.30
2017-10-11T12:00:12.404Z,15.30
2017-10-11T12:02:41.379Z,15.20
2017-10-11T12:05:11.581Z,15.10
2017-10-11T12:07:40.645Z,15.10
2017-10-11T12:10:10.387Z,15.10
2017-10-11T12:12:39.362Z,15.10
2017-10-11T12:15:08.716Z,15.10
2017-10-11T12:17:38.080Z,15.10
2017-10-11T12:20:07.024Z,15.10
2017-10-11T12:22:36.004Z,15.10
2017-10-11T12:25:04.952Z,15.10
2017-10-11T12:27:34.690Z,15.20
2017-10-11T12:30:03.660Z,15.30
2017-10-11T12:32:32.620Z,15.30
2017-10-11T12:35:02.332Z,15.50
2017-10-11T12:37:31.707Z,15.60
2017-10-11T12:40:00.676Z,15.70
2017-10-11T12:42:29.635Z,15.70
2017-10-11T12:44:58.574Z,15.70
2017-10-11T12:47:27.540Z,15.70
2017-10-11T12:49:56.496Z,15.70
2017-10-11T12:52:25.867Z,15.50
2017-10-11T12:54:54.821Z,15.50
2017-10-11T12:57:24.193Z,15.60
2017-10-11T12:59:53.902Z,15.50
2017-10-11T13:02:23.816Z,15.60
2017-10-11T13:04:52.782Z,15.60
2017-10-11T13:07:21.737Z,15.50
2017-10-11T13:09:50.721Z,15.50
2017-10-11T13:12:19.675Z,15.50
2017-10-11T13:14:49.397Z,15.50
2017-10-11T13:17:18.768Z,15.50
2017-10-11T13:19:47.737Z,15.60
2017-10-11T13:22:16.681Z,15.50
2017-10-11T13:24:46.519Z,15.40
2017-10-11T13:27:15.861Z,15.50
2017-10-11T13:29:44.838Z,15.60
2017-10-11T13:32:13.791Z,15.80
2017-10-11T13:34:42.743Z,15.70
2017-10-11T13:37:12.467Z,15.70
2017-10-11T13:39:42.266Z,15.80
2017-10-11T13:42:11.262Z,15.80
2017-10-11T13:44:40.619Z,15.80
2017-10-11T13:47:09.589Z,15.80
2017-10-11T13:49:38.881Z,15.80
2017-10-11T13:52:07.821Z,15.70
2017-10-11T13:54:36.787Z,15.70
2017-10-11T13:57:06.497Z,15.50
2017-10-11T13:59:35.470Z,15.60
2017-10-11T14:02:04.406Z,15.70
2017-10-11T14:04:33.385Z,15.70
2017-10-11T14:07:02.329Z,15.70
2017-10-11T14:09:31.717Z,15.60
2017-10-11T14:12:01.421Z,15.60
2017-10-11T14:14:31.160Z,15.60
2017-10-11T14:17:00.832Z,15.60
2017-10-11T14:19:29.766Z,15.60
2017-10-11T14:21:59.495Z,15.60
2017-10-11T14:24:28.437Z,15.50
2017-10-11T14:26:58.177Z,15.40
2017-10-11T14:29:27.148Z,15.50
2017-10-11T14:31:56.488Z,15.40
2017-10-11T14:34:25.518Z,15.40
2017-10-11T14:36:55.392Z,15.30
2017-10-11T14:39:25.308Z,15.30
2017-10-11T14:41:55.064Z,15.40
2017-10-11T14:44:24.975Z,15.30
2017-10-11T14:46:54.374Z,15.40
2017-10-11T14:49:24.128Z,15.40
2017-10-11T14:51:53.185Z,15.40
2017-10-11T14:54:22.663Z,15.50
2017-10-11T14:56:52.461Z,15.50
2017-10-11T14:59:21.479Z,15.60
2017-10-11T15:01:51.204Z,15.60
2017-10-11T15:04:20.394Z,15.50
2017-10-11T15:06:49.795Z,15.50
2017-10-11T15:09:18.858Z,15.50
2017-10-11T15:11:48.244Z,15.50
2017-10-11T15:14:18.635Z,15.50
2017-10-11T15:16:47.669Z,15.50
2017-10-11T15:19:16.693Z,15.40
2017-10-11T15:21:47.214Z,15.40
2017-10-11T15:24:17.515Z,15.30
2017-10-11T15:26:46.475Z,15.30
2017-10-11T15:29:15.568Z,15.50
2017-10-11T15:31:44.520Z,15.30
2017-10-11T15:34:14.950Z,15.30
2017-10-11T15:36:44.918Z,15.30
2017-10-11T15:39:14.843Z,15.30
2017-10-11T15:41:43.864Z,15.30
2017-10-11T15:44:12.808Z,15.30
2017-10-11T15:46:42.625Z,15.30
2017-10-11T15:49:12.184Z,15.20
2017-10-11T15:51:41.152Z,15.30
2017-10-11T15:54:10.127Z,15.20
2017-10-11T15:56:40.100Z,15.10
2017-10-11T15:59:09.513Z,15.10
2017-10-11T16:01:38.891Z,15.10
2017-10-11T16:04:08.774Z,15.10
2017-10-11T16:06:38.553Z,15.00
2017-10-11T16:09:10.663Z,15.10
2017-10-11T16:11:40.431Z,15.00
2017-10-11T16:14:09.790Z,15.10
2017-10-11T16:16:40.486Z,15.10
2017-10-11T16:19:10.285Z,15.10
2017-10-11T16:21:39.314Z,15.00
2017-10-11T16:24:09.077Z,15.10
2017-10-11T16:26:38.801Z,15.10
2017-10-11T16:29:09.387Z,15.10
2017-10-11T16:31:39.596Z,15.10
2017-10-11T16:34:08.720Z,15.00
2017-10-11T16:36:37.685Z,15.00
2017-10-11T16:39:06.625Z,15.00
2017-10-11T16:41:35.588Z,15.00
2017-10-11T16:44:05.328Z,15.00
2017-10-11T16:46:34.346Z,15.00
2017-10-11T16:49:03.304Z,15.00
2017-10-11T16:51:32.649Z,14.90
2017-10-11T16:54:02.396Z,14.90
2017-10-11T16:56:31.446Z,14.90
2017-10-11T16:59:00.437Z,14.90
2017-10-11T17:01:29.380Z,14.90
2017-10-11T17:03:58.747Z,15.00
2017-10-11T17:06:27.746Z,15.00
2017-10-11T17:08:56.753Z,15.00
2017-10-11T17:11:26.460Z,14.90
2017-10-11T17:13:55.458Z,15.00
2017-10-11T17:16:24.473Z,15.00
2017-10-11T17:18:53.549Z,15.00
2017-10-11T17:21:22.592Z,14.90
2017-10-11T17:23:51.919Z,14.90
2017-10-11T17:26:21.302Z,14.90
2017-10-11T17:28:50.296Z,14.90
2017-10-11T17:31:20.014Z,15.00
2017-10-11T17:33:49.366Z,14.90
2017-10-11T17:36:18.335Z,15.00
2017-10-11T17:38:47.316Z,14.90
2017-10-11T17:41:16.698Z,14.90
2017-10-11T17:43:45.648Z,14.90
2017-10-11T17:46:14.633Z,14.90
2017-10-11T17:48:43.580Z,14.80
2017-10-11T17:51:12.613Z,14.80
2017-10-11T17:53:41.561Z,14.80
2017-10-11T17:56:10.936Z,14.80
2017-10-11T17:58:40.657Z,14.80
2017-10-11T18:01:10.433Z,14.70
2017-10-11T18:03:39.522Z,14.80
2017-10-11T18:06:08.493Z,14.80
2017-10-11T18:08:37.449Z,14.80
2017-10-11T18:11:06.437Z,14.70
2017-10-11T18:13:35.781Z,14.70
2017-10-11T18:16:04.773Z,14.70
2017-10-11T18:18:33.724Z,14.70
2017-10-11T18:21:02.713Z,14.70
2017-10-11T18:23:32.553Z,14.70
2017-10-11T18:26:01.581Z,14.70
2017-10-11T18:28:30.570Z,14.60
2017-10-11T18:30:59.544Z,14.60
2017-10-11T18:33:28.570Z,14.60
2017-10-11T18:35:57.799Z,14.70
2017-10-11T18:38:27.224Z,14.70
2017-10-11T18:40:57.074Z,14.70
2017-10-11T18:43:26.101Z,14.60
2017-10-11T18:45:55.508Z,14.60
2017-10-11T18:48:25.396Z,14.60
2017-10-11T18:50:54.390Z,14.60
2017-10-11T18:53:24.376Z,14.60
2017-10-11T18:55:53.408Z,14.50
2017-10-11T18:58:23.130Z,14.50
2017-10-11T19:00:52.126Z,14.60
2017-10-11T19:03:21.227Z,14.60
2017-10-11T19:05:50.213Z,14.60
2017-10-11T19:08:19.587Z,14.60
2017-10-11T19:10:48.982Z,14.50
2017-10-11T19:13:18.946Z,14.50
2017-10-11T19:15:48.690Z,14.50
2017-10-11T19:18:17.667Z,14.50
2017-10-11T19:20:46.703Z,14.50
2017-10-11T19:23:15.720Z,14.40
2017-10-11T19:25:44.691Z,14.40
2017-10-11T19:28:13.676Z,14.50
2017-10-11T19:30:42.621Z,14.40
2017-10-11T19:33:11.691Z,14.50
2017-10-11T19:35:40.680Z,14.50
2017-10-11T19:38:09.745Z,14.50
2017-10-11T19:40:39.519Z,14.50
2017-10-11T19:43:08.653Z,14.40
2017-10-11T19:45:38.410Z,14.50
2017-10-11T19:48:07.421Z,14.40
2017-10-11T19:50:36.386Z,14.40
2017-10-11T19:53:06.162Z,14.40
2017-10-11T19:55:35.976Z,14.50
2017-10-11T19:58:05.197Z,14.60
2017-10-11T20:00:34.180Z,14.50
2017-10-11T20:03:03.963Z,14.50
2017-10-11T20:05:32.956Z,14.40
2017-10-11T20:08:01.944Z,14.40
2017-10-11T20:10:31.049Z,14.50
2017-10-11T20:13:00.787Z,14.50
2017-10-11T20:15:29.803Z,14.50
2017-10-11T20:17:58.751Z,14.50
2017-10-11T20:20:28.534Z,14.40
2017-10-11T20:22:57.490Z,14.40
2017-10-11T20:25:26.884Z,14.50
2017-10-11T20:27:56.228Z,14.50
2017-10-11T20:30:25.983Z,14.50
2017-10-11T20:32:54.950Z,14.50
2017-10-11T20:35:24.293Z,14.50
2017-10-11T20:37:53.734Z,14.60
2017-10-11T20:40:22.716Z,14.50
2017-10-11T20:42:52.468Z,14.50
2017-10-11T20:45:21.449Z,14.60
2017-10-11T20:47:51.440Z,14.50
2017-10-11T20:50:20.374Z,14.50
2017-10-11T20:52:49.740Z,14.50
2017-10-11T20:55:19.093Z,14.50
2017-10-11T20:57:49.213Z,14.40
2017-10-11T21:00:18.181Z,14.50
2017-10-11T21:02:47.191Z,14.40
2017-10-11T21:05:26.098Z,14.40
2017-10-11T21:07:55.107Z,14.50
2017-10-11T21:10:24.076Z,14.50
2017-10-11T21:12:53.406Z,14.50
2017-10-11T21:15:22.449Z,14.50
2017-10-11T21:17:51.791Z,14.50
2017-10-11T21:20:20.850Z,14.50
2017-10-11T21:22:49.781Z,14.50
2017-10-11T21:25:19.516Z,14.40
2017-10-11T21:27:48.477Z,14.50
2017-10-11T21:30:17.837Z,14.50
2017-10-11T21:32:47.586Z,14.40
2017-10-11T21:35:16.529Z,14.50
2017-10-11T21:37:45.942Z,14.50
2017-10-11T21:40:14.903Z,14.60
2017-10-11T21:42:43.902Z,14.60
2017-10-11T21:45:13.663Z,14.60
2017-10-11T21:47:43.375Z,14.50
2017-10-11T21:50:12.366Z,14.50
2017-10-11T21:52:41.384Z,14.40
2017-10-11T21:55:10.784Z,14.30
2017-10-11T21:57:40.516Z,14.30
2017-10-11T22:00:09.451Z,14.20
2017-10-11T22:02:38.443Z,14.20
2017-10-11T22:05:07.394Z,14.20
2017-10-11T22:07:36.343Z,14.20
2017-10-11T22:10:06.447Z,14.10
2017-10-11T22:12:35.383Z,14.10
2017-10-11T22:15:04.342Z,14.20
2017-10-11T22:17:33.678Z,14.10
2017-10-11T22:20:02.668Z,14.10
2017-10-11T22:22:31.606Z,14.10
2017-10-11T22:25:00.573Z,14.10
2017-10-11T22:27:29.918Z,14.20
2017-10-11T22:29:59.073Z,14.30
2017-10-11T22:32:28.393Z,14.30
2017-10-11T22:34:57.739Z,14.30
2017-10-11T22:37:27.489Z,14.30
2017-10-11T22:39:57.201Z,14.30
2017-10-11T22:42:26.580Z,14.30
2017-10-11T22:44:55.543Z,14.30
2017-10-11T22:47:24.515Z,14.00
2017-10-11T22:49:53.530Z,14.30
2017-10-11T22:52:22.458Z,14.30
2017-10-11T22:54:51.397Z,14.30
2017-10-11T22:57:20.328Z,14.40
2017-10-11T22:59:49.298Z,14.40
2017-10-11T23:02:18.625Z,14.40
2017-10-11T23:04:47.621Z,14.50
2017-10-11T23:07:16.980Z,14.40
2017-10-11T23:09:46.733Z,14.50
2017-10-11T23:12:15.655Z,14.50
2017-10-11T23:14:44.612Z,14.50
2017-10-11T23:17:13.538Z,14.60
2017-10-11T23:19:42.880Z,14.70
2017-10-11T23:22:12.580Z,14.70
2017-10-11T23:24:41.546Z,14.70
2017-10-11T23:27:10.493Z,14.70
2017-10-11T23:29:40.241Z,14.70
2017-10-11T23:32:09.192Z,14.70
2017-10-11T23:34:38.904Z,14.70
2017-10-11T23:37:08.609Z,14.60
2017-10-11T23:39:37.536Z,14.60
2017-10-11T23:42:06.484Z,14.50
2017-10-11T23:44:35.436Z,14.40
2017-10-11T23:47:04.376Z,14.40
2017-10-11T23:49:34.068Z,14.30
2017-10-11T23:52:03.076Z,14.20
2017-10-11T23:54:32.459Z,14.00
2017-10-11T23:57:01.401Z,14.00
2017-10-11T23:59:30.321Z,13.90
